Time;durP1;ratioP1;P1;durP2;ratioP2;P2;SDS_P1;SDS_P2;PMS_P1;PMS_P2;Temp;Humidity;BMP_temperature;BMP_pressure;BME280_temperature;BME280_humidity;BME280_pressure;Samples;Min_cycle;Max_cycle;Signal;HPM_P1;HPM_P2
2022/01/30 00:01:37;;;;;;;28.83;5.45;;;7.10;98.40;;;;;;5075028;28;20135;-73
2022/01/30 00:04:03;;;;;;;23.88;5.18;;;7.10;98.20;;;;;;5058408;28;20044;-73
2022/01/30 00:06:28;;;;;;;27.50;5.45;;;7.10;98.00;;;;;;5075055;28;20055;-73
2022/01/30 00:08:54;;;;;;;29.48;5.50;;;7.10;97.90;;;;;;5075177;28;20121;-73
2022/01/30 00:11:24;;;;;;;26.27;5.53;;;7.10;97.70;;;;;;5075067;28;20513;-73
2022/01/30 00:13:50;;;;;;;32.15;5.28;;;7.10;97.80;;;;;;5076085;28;20185;-73
2022/01/30 00:16:18;;;;;;;26.10;4.32;;;7.10;98.00;;;;;;5074952;28;20534;-73
2022/01/30 00:18:56;;;;;;;25.85;5.00;;;7.10;98.20;;;;;;5058062;28;20040;-73
2022/01/30 00:24:01;;;;;;;31.65;6.25;;;7.10;98.70;;;;;;5075094;28;20054;-73
2022/01/30 00:26:30;;;;;;;26.77;5.82;;;7.10;98.70;;;;;;5074890;28;20044;-73
2022/01/30 00:28:57;;;;;;;32.15;5.10;;;7.10;98.80;;;;;;5075011;28;20079;-73
2022/01/30 00:31:24;;;;;;;34.97;5.97;;;7.00;98.90;;;;;;5075015;28;20036;-73
2022/01/30 00:33:50;;;;;;;27.85;4.93;;;7.00;99.00;;;;;;5074806;28;20505;-73
2022/01/30 00:36:16;;;;;;;30.98;5.43;;;6.90;99.10;;;;;;5074800;28;20498;-74
2022/01/30 00:38:42;;;;;;;30.98;4.57;;;6.90;99.00;;;;;;5074613;28;20086;-73
2022/01/30 00:41:08;;;;;;;24.38;4.07;;;6.90;99.10;;;;;;5074762;28;20043;-73
2022/01/30 00:43:34;;;;;;;30.63;4.53;;;6.90;99.00;;;;;;5074667;28;20557;-73
2022/01/30 00:46:00;;;;;;;23.48;4.22;;;6.90;99.00;;;;;;5074618;28;20131;-73
2022/01/30 00:48:25;;;;;;;22.92;5.13;;;6.90;99.20;;;;;;5074900;28;20074;-73
2022/01/30 00:50:51;;;;;;;24.48;4.22;;;6.90;99.40;;;;;;5074644;28;20395;-73
2022/01/30 00:53:16;;;;;;;27.80;5.00;;;6.90;99.80;;;;;;5077100;28;20032;-73
2022/01/30 00:55:42;;;;;;;23.48;4.57;;;6.90;99.90;;;;;;5078495;28;20032;-73
2022/01/30 00:58:08;;;;;;;24.83;4.85;;;6.80;99.90;;;;;;5078354;28;20036;-73
2022/01/30 01:00:34;;;;;;;27.85;4.55;;;6.80;99.90;;;;;;5078364;28;20097;-73
2022/01/30 01:03:01;;;;;;;25.42;5.28;;;6.60;99.90;;;;;;5078298;28;20494;-73
2022/01/30 01:05:27;;;;;;;26.00;4.20;;;6.50;99.90;;;;;;5078234;28;20086;-73
2022/01/30 01:07:57;;;;;;;21.42;4.00;;;6.50;99.90;;;;;;5078684;28;20039;-73
2022/01/30 01:10:35;;;;;;;20.42;3.70;;;6.30;99.90;;;;;;5078079;28;20040;-73
2022/01/30 01:20:58;;;;;;;20.48;3.45;;;6.10;99.90;;;;;;5077979;28;20040;-73
2022/01/30 01:23:57;;;;;;;26.02;4.40;;;6.00;99.90;;;;;;5077925;28;20043;-73
2022/01/30 01:26:24;;;;;;;23.05;4.53;;;6.00;99.90;;;;;;5077875;28;20071;-73
2022/01/30 01:28:50;;;;;;;27.58;5.20;;;5.90;99.90;;;;;;5077642;28;20119;-73
2022/01/30 01:31:16;;;;;;;27.38;4.97;;;5.90;99.90;;;;;;5077764;28;20410;-73
2022/01/30 01:36:10;;;;;;;24.98;5.45;;;5.90;99.90;;;;;;5077905;28;20071;-73
2022/01/30 01:38:35;;;;;;;35.03;5.63;;;5.90;99.90;;;;;;5077738;28;20402;-72
2022/01/30 01:41:01;;;;;;;32.97;5.30;;;5.80;99.90;;;;;;5077578;28;20039;-73
2022/01/30 01:43:27;;;;;;;37.85;6.38;;;5.80;99.90;;;;;;5060886;28;20119;-73
2022/01/30 01:45:55;;;;;;;25.60;5.00;;;5.80;99.90;;;;;;5060760;28;20036;-73
2022/01/30 01:48:21;;;;;;;25.17;4.82;;;5.80;99.90;;;;;;5077458;28;20043;-73
2022/01/30 01:50:55;;;;;;;24.55;5.18;;;5.80;99.90;;;;;;5060633;28;20044;-73
2022/01/30 01:53:24;;;;;;;26.50;4.40;;;5.80;99.90;;;;;;5077596;28;20054;-73
2022/01/30 01:55:51;;;;;;;25.75;4.32;;;5.80;99.90;;;;;;5077375;28;20036;-73
2022/01/30 01:58:17;;;;;;;22.75;4.82;;;5.80;99.90;;;;;;5077191;28;20391;-73
2022/01/30 02:00:43;;;;;;;24.10;4.68;;;5.80;99.90;;;;;;5077259;28;20093;-73
2022/01/30 02:03:10;;;;;;;27.05;5.13;;;5.80;99.90;;;;;;5060659;28;20035;-73
2022/01/30 02:05:39;;;;;;;29.02;4.60;;;5.90;99.90;;;;;;5077198;28;20040;-73
2022/01/30 02:08:26;;;;;;;26.75;4.72;;;6.00;99.90;;;;;;5077003;28;20525;-73
2022/01/30 02:11:16;;;;;;;31.50;4.85;;;6.00;99.90;;;;;;5076894;28;20076;-73
2022/01/30 02:24:41;;;;;;;28.58;4.65;;;6.00;99.90;;;;;;5077060;28;20130;-73
2022/01/30 02:27:11;;;;;;;30.60;5.85;;;6.00;99.90;;;;;;5076675;28;20031;-73
2022/01/30 02:29:37;;;;;;;34.08;6.90;;;6.00;99.90;;;;;;5076683;28;20410;-73
2022/01/30 02:32:03;;;;;;;30.63;5.40;;;6.10;99.90;;;;;;5076907;28;20047;-73
2022/01/30 02:34:30;;;;;;;35.92;6.85;;;6.10;99.90;;;;;;5076513;28;20408;-73
2022/01/30 02:36:56;;;;;;;32.13;5.68;;;6.10;99.90;;;;;;5076287;28;20119;-73
2022/01/30 02:39:22;;;;;;;33.05;5.15;;;6.10;99.90;;;;;;5076469;28;20040;-73
2022/01/30 02:41:48;;;;;;;32.47;5.75;;;6.20;99.90;;;;;;5076459;28;20040;-74
2022/01/30 02:46:46;;;;;;;35.22;5.68;;;6.30;99.90;;;;;;5076268;28;20048;-72
2022/01/30 02:51:53;;;;;;;34.88;5.95;;;6.30;99.90;;;;;;5076444;28;20050;-73
2022/01/30 02:54:19;;;;;;;29.58;5.05;;;6.40;99.90;;;;;;5077290;28;20058;-73
2022/01/30 02:56:45;;;;;;;34.15;5.63;;;6.50;99.90;;;;;;5076255;28;20553;-73
2022/01/30 02:59:11;;;;;;;28.42;5.20;;;6.50;99.90;;;;;;5076105;28;20031;-73
2022/01/30 03:01:37;;;;;;;25.73;5.15;;;6.50;99.90;;;;;;5075999;28;20103;-73
2022/01/30 03:04:03;;;;;;;27.90;5.18;;;6.50;99.90;;;;;;5075987;28;20044;-73
2022/01/30 03:06:29;;;;;;;32.63;5.78;;;6.40;99.90;;;;;;5075901;28;20040;-73
2022/01/30 03:08:55;;;;;;;31.65;5.63;;;6.30;99.90;;;;;;5059123;28;20047;-73
2022/01/30 03:11:21;;;;;;;27.88;5.40;;;6.20;99.90;;;;;;5075806;28;20040;-73
2022/01/30 03:13:47;;;;;;;35.05;5.68;;;6.10;99.90;;;;;;5059461;28;20039;-73
2022/01/30 03:16:13;;;;;;;32.85;6.15;;;6.10;99.90;;;;;;5075579;28;20043;-73
2022/01/30 03:18:40;;;;;;;31.48;5.97;;;6.10;99.90;;;;;;5075953;28;20036;-73
2022/01/30 03:21:07;;;;;;;40.80;5.50;;;6.10;99.90;;;;;;5075686;28;20036;-73
2022/01/30 03:23:36;;;;;;;34.95;5.28;;;6.10;99.90;;;;;;5058965;28;20028;-73
2022/01/30 03:26:02;;;;;;;36.50;5.72;;;6.10;99.90;;;;;;5059209;28;20032;-73
2022/01/30 03:28:28;;;;;;;31.70;5.63;;;6.10;99.90;;;;;;5075672;28;20032;-73
2022/01/30 03:30:58;;;;;;;29.77;4.85;;;6.10;99.90;;;;;;5075423;28;20453;-73
2022/01/30 03:33:24;;;;;;;31.02;5.05;;;6.10;99.90;;;;;;5058799;28;20478;-73
2022/01/30 03:35:50;;;;;;;29.67;4.80;;;6.10;99.90;;;;;;5075454;28;20044;-73
2022/01/30 03:38:16;;;;;;;37.63;5.57;;;6.10;99.90;;;;;;5075566;28;20048;-73
2022/01/30 03:40:43;;;;;;;31.00;5.57;;;6.10;99.90;;;;;;5058679;28;20189;-73
2022/01/30 03:43:09;;;;;;;28.33;5.47;;;6.10;99.90;;;;;;5058864;28;20448;-73
2022/01/30 03:45:35;;;;;;;33.80;6.20;;;6.00;99.90;;;;;;5075319;28;20040;-73
2022/01/30 03:48:01;;;;;;;31.35;5.55;;;6.00;99.90;;;;;;5075241;28;20092;-73
2022/01/30 03:50:26;;;;;;;43.65;6.57;;;6.00;99.90;;;;;;5075188;28;20123;-72
2022/01/30 03:52:54;;;;;;;39.80;7.25;;;6.00;99.90;;;;;;5075221;28;20162;-73
2022/01/30 03:55:20;;;;;;;40.58;7.68;;;6.10;99.90;;;;;;5075156;28;20051;-73
2022/01/30 03:57:46;;;;;;;32.65;6.05;;;6.10;99.90;;;;;;5075069;28;20119;-73
2022/01/30 04:00:12;;;;;;;44.83;7.00;;;6.10;99.90;;;;;;5075173;28;20115;-73
2022/01/30 04:02:38;;;;;;;40.22;6.78;;;6.10;99.90;;;;;;5075369;28;20048;-73
2022/01/30 04:05:04;;;;;;;43.25;7.65;;;6.10;99.90;;;;;;5075965;28;20036;-73
2022/01/30 04:07:31;;;;;;;41.08;8.55;;;6.20;99.90;;;;;;5075268;28;20043;-73
2022/01/30 04:09:57;;;;;;;36.33;6.78;;;6.20;99.90;;;;;;5074936;28;20072;-73
2022/01/30 04:12:23;;;;;;;38.97;7.85;;;6.20;99.90;;;;;;5074977;28;20165;-73
2022/01/30 04:14:49;;;;;;;40.20;7.15;;;6.30;99.90;;;;;;5058217;28;20043;-73
2022/01/30 04:17:20;;;;;;;45.22;7.13;;;6.30;99.90;;;;;;5074916;28;20101;-72
2022/01/30 04:19:46;;;;;;;37.25;6.78;;;6.30;99.90;;;;;;5075035;28;20090;-73
2022/01/30 04:22:12;;;;;;;37.72;7.63;;;6.30;99.90;;;;;;5074960;28;20044;-73
2022/01/30 04:24:38;;;;;;;41.55;6.60;;;6.30;99.90;;;;;;5075978;28;20047;-73
2022/01/30 04:27:04;;;;;;;46.42;7.13;;;6.30;99.90;;;;;;5075388;28;20046;-72
2022/01/30 04:29:30;;;;;;;41.30;7.68;;;6.30;99.90;;;;;;5079037;28;20131;-73
2022/01/30 04:31:56;;;;;;;39.90;7.55;;;6.30;99.90;;;;;;5062521;28;20032;-73
2022/01/30 04:34:23;;;;;;;39.45;7.40;;;6.30;99.90;;;;;;5079157;28;20042;-73
2022/01/30 04:37:30;;;;;;;44.15;8.27;;;6.30;99.90;;;;;;5061889;28;20489;-73
2022/01/30 04:58:53;;;;;;;39.90;7.50;;;5.70;99.90;;;;;;5078324;28;20044;-73
2022/01/30 05:01:37;;;;;;;41.40;8.05;;;5.70;99.90;;;;;;5078376;28;20047;-73
2022/01/30 05:04:22;;;;;;;51.42;8.55;;;5.70;99.90;;;;;;5078398;28;20115;-73
2022/01/30 05:09:26;;;;;;;48.10;9.35;;;5.70;99.90;;;;;;5078360;28;20048;-73
2022/01/30 05:11:53;;;;;;;53.70;9.23;;;5.70;99.90;;;;;;5061635;28;20051;-73
2022/01/30 05:14:22;;;;;;;50.88;9.27;;;5.70;99.90;;;;;;5078413;28;20039;-73
2022/01/30 05:16:48;;;;;;;54.55;10.30;;;5.70;99.90;;;;;;5061226;28;20036;-72
2022/01/30 05:19:14;;;;;;;53.13;8.88;;;5.70;99.90;;;;;;5077990;28;20062;-73
2022/01/30 05:21:40;;;;;;;45.63;8.88;;;5.60;99.90;;;;;;5061258;28;20089;-73
2022/01/30 05:24:06;;;;;;;47.05;8.55;;;5.60;99.90;;;;;;5077908;28;20044;-73
2022/01/30 05:26:32;;;;;;;54.58;9.40;;;5.60;99.90;;;;;;5077801;28;20512;-73
2022/01/30 05:28:58;;;;;;;59.88;10.30;;;5.60;99.90;;;;;;5077613;28;20036;-72
2022/01/30 05:31:24;;;;;;;55.03;9.43;;;5.60;99.90;;;;;;5061314;28;20036;-73
2022/01/30 05:33:50;;;;;;;57.03;8.70;;;5.60;99.90;;;;;;5077727;28;20036;-73
2022/01/30 05:36:16;;;;;;;49.13;8.80;;;5.60;99.90;;;;;;5077688;28;20036;-73
2022/01/30 05:38:41;;;;;;;54.45;9.32;;;5.60;99.90;;;;;;5075975;28;20036;-73
2022/01/30 05:41:07;;;;;;;46.88;8.40;;;5.60;99.90;;;;;;5076433;28;20050;-73
2022/01/30 05:43:34;;;;;;;46.92;9.65;;;5.60;99.90;;;;;;5076694;28;20119;-73
2022/01/30 05:46:15;;;;;;;49.22;8.20;;;5.60;99.90;;;;;;5076420;28;20044;-73
2022/01/30 05:48:41;;;;;;;51.47;9.02;;;5.60;99.90;;;;;;5076566;28;20044;-73
2022/01/30 05:51:06;;;;;;;46.42;8.77;;;5.60;99.90;;;;;;5076307;28;20043;-72
2022/01/30 05:53:32;;;;;;;46.45;9.07;;;5.60;99.90;;;;;;5076333;28;20408;-73
2022/01/30 05:55:58;;;;;;;45.45;9.07;;;5.70;99.90;;;;;;5076312;28;20077;-73
2022/01/30 05:58:24;;;;;;;49.25;8.88;;;5.60;99.90;;;;;;5076197;28;20044;-72
2022/01/30 06:00:49;;;;;;;52.22;9.02;;;5.70;99.90;;;;;;5076439;28;20071;-73
2022/01/30 06:03:15;;;;;;;46.80;9.02;;;5.70;99.90;;;;;;5076176;28;20040;-73
2022/01/30 06:05:41;;;;;;;47.53;9.23;;;5.60;99.90;;;;;;5076103;28;20044;-72
2022/01/30 06:08:38;;;;;;;41.75;9.52;;;5.60;99.90;;;;;;5076303;28;20418;-72
2022/01/30 06:11:01;;;;;;;49.22;9.88;;;5.60;99.90;;;;;;5076706;28;20052;-71
2022/01/30 06:13:29;;;;;;;44.97;9.23;;;5.60;99.90;;;;;;5076309;28;20405;-71
2022/01/30 06:15:55;;;;;;;49.53;9.75;;;5.60;99.90;;;;;;5059523;28;20512;-71
2022/01/30 06:18:20;;;;;;;44.10;9.07;;;5.60;99.90;;;;;;5076170;28;20032;-71
2022/01/30 06:20:46;;;;;;;43.60;9.23;;;5.60;99.90;;;;;;5076332;28;20559;-71
2022/01/30 06:23:11;;;;;;;50.75;8.90;;;5.60;99.90;;;;;;5075891;28;20040;-71
2022/01/30 06:25:37;;;;;;;44.97;7.72;;;5.50;99.90;;;;;;5076047;28;20135;-71
2022/01/30 06:28:03;;;;;;;43.28;8.23;;;5.60;99.90;;;;;;5075718;28;20504;-71
2022/01/30 06:30:28;;;;;;;49.97;8.13;;;5.60;99.90;;;;;;5059069;28;20052;-71
2022/01/30 06:32:54;;;;;;;40.78;8.73;;;5.60;99.90;;;;;;5075742;28;20469;-71
2022/01/30 06:35:19;;;;;;;46.75;8.52;;;5.60;99.90;;;;;;5075668;28;20122;-71
2022/01/30 06:37:45;;;;;;;46.67;9.70;;;5.70;99.90;;;;;;5038473;28;1072485;-71
2022/01/30 06:40:11;;;;;;;58.75;10.70;;;5.70;99.90;;;;;;5076391;28;20051;-71
2022/01/30 06:42:37;;;;;;;42.55;8.30;;;5.80;99.90;;;;;;5059996;28;20047;-71
2022/01/30 06:45:03;;;;;;;45.38;8.77;;;5.80;99.90;;;;;;5076420;28;20042;-71
2022/01/30 06:47:29;;;;;;;43.08;7.40;;;5.80;99.90;;;;;;5076498;28;20123;-71
2022/01/30 06:49:55;;;;;;;42.05;8.10;;;5.80;99.90;;;;;;5057837;28;20055;-71
2022/01/30 06:52:20;;;;;;;45.92;8.40;;;5.80;99.90;;;;;;5076447;28;20040;-71
2022/01/30 06:54:46;;;;;;;50.40;8.68;;;5.80;99.90;;;;;;5076519;28;20546;-71
2022/01/30 06:57:11;;;;;;;43.78;7.85;;;5.80;99.90;;;;;;5076091;28;20579;-71
2022/01/30 06:59:37;;;;;;;48.88;11.60;;;5.80;99.90;;;;;;5076058;28;20135;-71
2022/01/30 07:02:03;;;;;;;43.38;8.23;;;5.80;99.90;;;;;;5076093;28;20074;-71
2022/01/30 07:04:29;;;;;;;52.22;10.75;;;5.80;99.90;;;;;;5075966;28;20048;-71
2022/01/30 07:06:55;;;;;;;43.35;7.55;;;5.80;99.90;;;;;;5076653;28;20066;-71
2022/01/30 07:09:20;;;;;;;49.08;7.75;;;5.80;99.90;;;;;;5075844;28;20094;-71
2022/01/30 07:11:46;;;;;;;40.83;9.48;;;5.90;99.90;;;;;;5075897;28;20032;-70
2022/01/30 07:14:11;;;;;;;44.33;9.93;;;5.90;99.90;;;;;;5075800;28;20032;-70
2022/01/30 07:16:37;;;;;;;50.55;9.32;;;5.90;99.90;;;;;;5075986;28;20126;-71
2022/01/30 07:19:02;;;;;;;53.25;9.55;;;5.90;99.90;;;;;;5075726;28;20123;-70
2022/01/30 07:21:28;;;;;;;52.33;9.20;;;5.90;99.90;;;;;;5075709;28;20032;-70
2022/01/30 07:23:53;;;;;;;50.60;9.57;;;5.90;99.90;;;;;;5075635;28;20036;-70
2022/01/30 07:26:19;;;;;;;45.28;8.55;;;5.90;99.90;;;;;;5075587;28;20067;-70
2022/01/30 07:28:45;;;;;;;47.90;9.05;;;5.90;99.90;;;;;;5075758;28;20032;-70
2022/01/30 07:31:10;;;;;;;43.53;7.80;;;5.90;99.90;;;;;;5075476;28;20040;-70
2022/01/30 07:33:39;;;;;;;47.88;9.40;;;6.00;99.90;;;;;;5075517;28;20077;-70
2022/01/30 07:36:06;;;;;;;57.88;8.23;;;6.00;99.90;;;;;;5075420;28;20044;-70
2022/01/30 07:38:32;;;;;;;46.97;8.57;;;6.00;99.90;;;;;;5075192;28;20119;-71
2022/01/30 07:40:58;;;;;;;46.50;9.48;;;6.00;99.90;;;;;;5075613;28;20115;-71
2022/01/30 07:43:23;;;;;;;44.90;8.82;;;6.00;99.90;;;;;;5075337;28;20558;-71
2022/01/30 07:45:49;;;;;;;60.10;9.65;;;6.00;99.90;;;;;;5075287;28;20040;-71
2022/01/30 07:48:15;;;;;;;45.45;8.35;;;6.00;99.90;;;;;;5075188;28;20044;-71
2022/01/30 07:50:41;;;;;;;50.70;8.68;;;6.00;99.90;;;;;;5075147;28;20048;-70
2022/01/30 07:53:07;;;;;;;49.33;8.90;;;6.10;99.90;;;;;;5075488;28;20066;-70
2022/01/30 07:55:32;;;;;;;47.47;8.85;;;6.10;99.90;;;;;;5075068;28;20512;-70
2022/01/30 07:57:58;;;;;;;45.08;9.32;;;6.10;99.90;;;;;;5075044;28;20036;-70
2022/01/30 08:00:24;;;;;;;55.17;9.60;;;6.10;99.90;;;;;;5075310;28;20044;-70
2022/01/30 08:02:50;;;;;;;55.90;9.82;;;6.10;99.90;;;;;;5075243;28;20459;-70
2022/01/30 08:05:15;;;;;;;45.50;9.55;;;6.10;99.90;;;;;;5075058;28;20046;-70
2022/01/30 08:07:41;;;;;;;53.78;10.13;;;6.00;99.90;;;;;;5075037;28;20040;-70
2022/01/30 08:10:07;;;;;;;49.97;9.18;;;6.10;99.90;;;;;;5058378;28;20044;-70
2022/01/30 08:12:33;;;;;;;47.90;9.35;;;6.10;99.90;;;;;;5075242;28;20073;-70
2022/01/30 08:14:58;;;;;;;51.92;9.73;;;6.10;99.90;;;;;;5075056;28;20414;-70
2022/01/30 08:17:24;;;;;;;54.15;9.73;;;6.10;99.90;;;;;;5074943;28;20067;-70
2022/01/30 08:19:51;;;;;;;51.17;9.25;;;6.10;99.90;;;;;;5075229;28;20044;-70
2022/01/30 08:22:16;;;;;;;59.42;9.77;;;6.10;99.90;;;;;;5075181;28;20555;-70
2022/01/30 08:24:42;;;;;;;46.25;8.73;;;6.10;99.80;;;;;;5074945;28;20118;-70
2022/01/30 08:27:08;;;;;;;49.35;8.27;;;6.10;98.50;;;;;;5074854;28;20166;-70
2022/01/30 08:29:33;;;;;;;42.58;7.78;;;6.10;97.80;;;;;;5075005;28;20044;-70
2022/01/30 08:31:59;;;;;;;47.22;8.77;;;6.10;97.30;;;;;;5074855;28;20372;-70
2022/01/30 08:34:26;;;;;;;43.33;8.68;;;6.20;96.30;;;;;;5074748;28;20188;-70
2022/01/30 08:36:52;;;;;;;38.95;6.80;;;6.20;95.40;;;;;;5074618;28;20048;-70
2022/01/30 08:39:18;;;;;;;40.92;7.47;;;6.20;95.00;;;;;;5074779;28;20067;-70
2022/01/30 08:41:44;;;;;;;45.53;8.82;;;6.20;94.20;;;;;;5075035;28;20089;-70
2022/01/30 08:44:10;;;;;;;39.35;8.52;;;6.20;93.50;;;;;;5075004;28;20051;-70
2022/01/30 08:46:36;;;;;;;36.67;7.30;;;6.20;93.20;;;;;;5074651;28;20040;-70
2022/01/30 08:49:01;;;;;;;47.10;7.53;;;6.20;93.30;;;;;;5074557;28;20047;-69
2022/01/30 08:51:27;;;;;;;42.25;7.57;;;6.20;93.10;;;;;;5074774;28;20066;-69
2022/01/30 08:53:53;;;;;;;45.03;8.13;;;6.20;93.10;;;;;;5074843;28;20123;-70
2022/01/30 08:56:21;;;;;;;34.83;7.88;;;6.20;92.90;;;;;;5074995;28;20047;-69
2022/01/30 08:58:47;;;;;;;35.25;7.47;;;6.20;93.20;;;;;;5074462;28;20452;-70
2022/01/30 09:01:13;;;;;;;37.70;7.55;;;6.20;92.70;;;;;;5074867;28;20048;-69
2022/01/30 09:03:39;;;;;;;52.75;8.13;;;6.20;92.40;;;;;;5074815;28;20093;-71
2022/01/30 09:06:05;;;;;;;43.10;8.00;;;6.30;92.20;;;;;;5074608;28;20530;-71
2022/01/30 09:08:31;;;;;;;40.67;8.50;;;6.40;92.50;;;;;;5074541;28;20036;-71
2022/01/30 09:10:57;;;;;;;41.00;7.75;;;6.40;92.10;;;;;;5074680;28;20075;-71
2022/01/30 09:13:23;;;;;;;42.45;8.05;;;6.50;91.90;;;;;;5075805;28;20502;-71
2022/01/30 09:15:56;;;;;;;44.10;8.05;;;6.50;91.70;;;;;;5078622;28;20561;-72
2022/01/30 09:18:21;;;;;;;47.80;9.20;;;6.50;91.50;;;;;;5078143;28;20040;-72
2022/01/30 09:20:47;;;;;;;44.80;8.95;;;6.50;91.50;;;;;;5078045;28;20044;-71
2022/01/30 09:23:13;;;;;;;42.25;8.60;;;6.50;91.00;;;;;;5078024;28;20036;-72
2022/01/30 09:25:39;;;;;;;38.25;7.32;;;6.60;91.10;;;;;;5078042;28;20043;-71
2022/01/30 09:28:06;;;;;;;44.92;8.95;;;6.60;90.90;;;;;;5078210;28;20047;-71
2022/01/30 09:30:32;;;;;;;43.42;7.07;;;6.60;91.00;;;;;;5077848;28;20040;-71
2022/01/30 09:32:58;;;;;;;41.25;7.95;;;6.60;90.80;;;;;;5077837;28;20083;-71
2022/01/30 09:35:24;;;;;;;38.85;8.27;;;6.70;90.80;;;;;;5077697;28;20063;-71
2022/01/30 09:37:49;;;;;;;48.72;8.68;;;6.80;90.50;;;;;;5077421;28;20086;-71
2022/01/30 09:40:17;;;;;;;49.47;9.65;;;6.90;90.60;;;;;;5077731;28;20093;-72
2022/01/30 09:42:45;;;;;;;45.35;7.88;;;6.90;90.80;;;;;;5077555;28;20044;-72
2022/01/30 09:45:11;;;;;;;40.47;8.30;;;6.90;90.20;;;;;;5077767;28;20136;-72
2022/01/30 09:47:38;;;;;;;46.70;8.68;;;6.90;90.40;;;;;;5077459;28;20040;-72
2022/01/30 09:50:05;;;;;;;47.70;8.85;;;6.90;90.20;;;;;;5077402;28;20409;-72
2022/01/30 09:52:31;;;;;;;40.20;8.55;;;7.10;90.00;;;;;;5077350;28;20383;-72
2022/01/30 09:54:56;;;;;;;50.00;8.43;;;7.20;90.20;;;;;;5077560;28;20047;-72
2022/01/30 09:57:22;;;;;;;40.60;7.97;;;7.20;89.70;;;;;;5078553;28;20074;-72
2022/01/30 09:59:48;;;;;;;39.55;7.30;;;7.20;90.20;;;;;;5077545;28;20570;-72
2022/01/30 10:02:14;;;;;;;42.17;8.32;;;7.10;89.80;;;;;;5077420;28;20078;-72
2022/01/30 10:04:40;;;;;;;42.05;8.18;;;7.10;89.90;;;;;;5077618;28;20044;-72
2022/01/30 10:07:13;;;;;;;39.42;7.40;;;7.10;89.80;;;;;;5077174;28;20047;-72
2022/01/30 10:09:45;;;;;;;;;;;7.10;90.00;;;;;;5077876;28;20104;-72
2022/01/30 10:12:20;;;;;;;44.00;7.80;;;7.20;88.10;;;;;;5077205;28;19916;-72
2022/01/30 10:15:06;;;;;;;47.92;9.18;;;7.30;90.20;;;;;;5077131;28;20107;-72
2022/01/30 10:17:38;;;;;;;46.47;8.18;;;7.50;88.90;;;;;;5076992;28;20076;-72
2022/01/30 10:20:10;;;;;;;40.00;8.65;;;7.60;89.00;;;;;;5077908;28;20047;-72
2022/01/30 10:22:47;;;;;;;45.13;9.02;;;7.70;87.40;;;;;;5076852;28;20036;-72
2022/01/30 10:25:24;;;;;;;47.13;8.02;;;7.70;87.40;;;;;;5075683;28;20047;-72
2022/01/30 10:28:13;;;;;;;39.83;8.40;;;7.70;85.30;;;;;;5076741;28;20517;-72
2022/01/30 10:30:55;;;;;;;49.13;9.13;;;7.80;85.70;;;;;;5076630;28;20036;-72
2022/01/30 10:33:48;;;;;;;39.85;8.55;;;7.90;85.00;;;;;;5076895;28;20079;-72
2022/01/30 10:36:30;;;;;;;45.22;8.32;;;7.90;85.50;;;;;;5071969;28;20130;-72
2022/01/30 10:39:03;;;;;;;39.70;8.30;;;8.00;85.80;;;;;;5076552;28;20036;-72
2022/01/30 10:41:38;;;;;;;47.83;8.95;;;8.10;84.70;;;;;;5076471;28;20050;-72
2022/01/30 10:44:06;;;;;;;45.25;8.63;;;8.20;84.30;;;;;;5059784;28;20406;-72
2022/01/30 10:46:47;;;;;;;49.53;8.23;;;8.30;83.60;;;;;;5059739;28;20047;-72
2022/01/30 10:49:21;;;;;;;49.55;9.02;;;8.30;82.90;;;;;;5076235;28;20482;-72
2022/01/30 10:52:01;;;;;;;49.20;8.80;;;8.20;83.40;;;;;;5059548;28;20036;-71
2022/01/30 10:54:32;;;;;;;46.28;9.52;;;8.10;85.40;;;;;;5059671;28;20036;-71
2022/01/30 10:57:06;;;;;;;44.38;8.75;;;8.00;84.80;;;;;;5059464;28;20036;-71
2022/01/30 10:59:32;;;;;;;39.72;8.02;;;7.90;83.90;;;;;;5076094;28;20036;-71
2022/01/30 11:02:11;;;;;;;48.67;8.70;;;7.90;85.90;;;;;;5059488;28;20054;-71
2022/01/30 11:04:37;;;;;;;50.15;9.38;;;7.80;85.80;;;;;;5076117;28;20391;-71
2022/01/30 11:07:04;;;;;;;44.78;8.77;;;7.70;86.80;;;;;;5076231;28;20058;-71
2022/01/30 11:09:35;;;;;;;42.60;8.55;;;7.70;86.50;;;;;;5076110;28;20087;-71
2022/01/30 11:12:13;;;;;;;40.53;8.05;;;7.70;86.20;;;;;;5076161;28;20131;-71
2022/01/30 11:14:53;;;;;;;41.38;7.53;;;7.80;84.80;;;;;;5076007;28;20512;-71
2022/01/30 11:17:22;;;;;;;50.78;8.20;;;7.80;82.30;;;;;;5076097;28;20067;-71
2022/01/30 11:19:52;;;;;;;40.72;7.68;;;7.80;81.70;;;;;;5075814;28;20082;-72
2022/01/30 11:22:23;;;;;;;45.53;7.82;;;7.90;81.30;;;;;;5075969;28;20525;-72
2022/01/30 11:24:53;;;;;;;35.90;7.60;;;7.90;80.60;;;;;;5075585;28;20134;-72
2022/01/30 11:27:21;;;;;;;35.55;7.22;;;8.00;80.10;;;;;;5075602;28;20040;-71
2022/01/30 11:29:48;;;;;;;34.88;7.20;;;8.30;79.00;;;;;;5075743;28;20047;-71
2022/01/30 11:32:15;;;;;;;34.33;7.40;;;9.10;77.10;;;;;;5075494;28;20501;-71
2022/01/30 11:34:43;;;;;;;35.03;7.80;;;10.40;73.90;;;;;;5075785;28;20109;-71
2022/01/30 11:37:11;;;;;;;32.10;6.80;;;11.60;68.70;;;;;;5074968;28;20508;-72
2022/01/30 11:39:42;;;;;;;42.38;7.78;;;12.40;64.40;;;;;;5075466;28;20052;-72
2022/01/30 11:42:11;;;;;;;47.20;8.23;;;13.20;61.20;;;;;;5075514;28;20541;-72
2022/01/30 11:44:39;;;;;;;29.65;7.28;;;13.90;59.20;;;;;;5075401;28;20040;-72
2022/01/30 11:47:04;;;;;;;32.60;6.65;;;14.30;56.80;;;;;;5075306;28;20036;-72
2022/01/30 11:49:49;;;;;;;28.83;6.82;;;14.40;55.70;;;;;;5075485;28;20044;-71
2022/01/30 11:52:15;;;;;;;38.05;7.28;;;14.30;53.10;;;;;;5075320;28;20035;-71
2022/01/30 11:54:41;;;;;;;33.78;7.47;;;14.00;54.80;;;;;;5058921;28;20089;-71
2022/01/30 11:57:22;;;;;;;32.13;6.78;;;14.10;56.30;;;;;;5075425;28;20140;-72
2022/01/30 11:59:52;;;;;;;29.85;7.70;;;14.40;53.70;;;;;;5075233;28;20085;-72
2022/01/30 12:02:28;;;;;;;31.85;6.65;;;15.00;53.80;;;;;;5075273;28;20036;-72
2022/01/30 12:04:57;;;;;;;29.00;7.07;;;14.90;52.50;;;;;;5075681;28;20040;-72
2022/01/30 12:07:45;;;;;;;31.55;6.38;;;14.80;53.60;;;;;;5075021;28;20040;-72
2022/01/30 12:10:19;;;;;;;41.17;7.10;;;14.50;51.80;;;;;;5058516;28;20039;-72
2022/01/30 12:12:50;;;;;;;34.25;7.22;;;14.00;53.70;;;;;;5058513;28;20043;-71
2022/01/30 12:15:42;;;;;;;32.50;7.10;;;13.60;54.00;;;;;;5075072;28;20464;-71
2022/01/30 12:18:12;;;;;;;29.83;6.38;;;13.30;53.10;;;;;;5074966;28;20119;-71
2022/01/30 12:20:56;;;;;;;32.28;7.38;;;12.70;55.10;;;;;;5075017;28;20048;-71
2022/01/30 12:23:30;;;;;;;35.00;6.57;;;12.30;54.30;;;;;;5075410;28;20043;-71
2022/01/30 12:26:04;;;;;;;33.65;6.15;;;12.00;57.20;;;;;;5075030;28;20508;-71
2022/01/30 12:28:45;;;;;;;36.63;6.82;;;11.70;58.10;;;;;;5074975;28;20044;-72
2022/01/30 12:31:34;;;;;;;30.20;6.47;;;11.50;58.10;;;;;;5074883;28;20064;-71
2022/01/30 12:34:04;;;;;;;35.13;6.50;;;11.10;58.70;;;;;;5075090;28;20089;-71
2022/01/30 12:36:35;;;;;;;34.83;7.10;;;11.20;59.50;;;;;;5057928;28;20040;-72
2022/01/30 12:39:06;;;;;;;34.13;6.88;;;11.80;58.50;;;;;;5058008;28;20123;-72
2022/01/30 12:41:33;;;;;;;34.85;6.93;;;12.70;56.30;;;;;;5074856;28;20040;-71
2022/01/30 12:44:07;;;;;;;29.83;6.35;;;13.10;55.20;;;;;;5074925;28;20494;-71
2022/01/30 12:46:46;;;;;;;31.52;7.63;;;13.10;55.30;;;;;;5074727;28;20032;-71
2022/01/30 12:49:14;;;;;;;34.40;6.63;;;13.30;54.70;;;;;;5076955;28;20043;-71
2022/01/30 12:51:42;;;;;;;26.92;6.90;;;13.10;55.00;;;;;;5078636;28;20031;-71
2022/01/30 12:54:09;;;;;;;42.05;7.18;;;12.50;56.20;;;;;;5078533;28;20406;-71
2022/01/30 12:56:36;;;;;;;33.58;7.30;;;12.60;56.20;;;;;;5079601;28;20044;-71
2022/01/30 12:59:07;;;;;;;35.90;6.80;;;13.10;55.00;;;;;;5061903;28;20048;-71
2022/01/30 13:01:36;;;;;;;30.45;6.45;;;13.90;54.50;;;;;;5078478;28;20083;-71
2022/01/30 13:04:17;;;;;;;32.78;6.75;;;14.60;52.70;;;;;;5078611;28;20028;-71
2022/01/30 13:07:01;;;;;;;35.55;6.32;;;15.10;50.90;;;;;;5078793;28;20082;-72
2022/01/30 13:09:31;;;;;;;35.50;6.50;;;15.40;51.10;;;;;;5062151;28;20040;-71
2022/01/30 13:12:11;;;;;;;28.02;7.28;;;15.50;51.00;;;;;;5078591;28;20090;-71
2022/01/30 13:14:38;;;;;;;30.88;6.25;;;14.90;51.60;;;;;;5078414;28;20040;-72
2022/01/30 13:17:05;;;;;;;31.00;6.85;;;14.70;52.70;;;;;;5078354;28;20040;-74
2022/01/30 13:19:33;;;;;;;31.67;7.78;;;14.00;53.50;;;;;;5078178;28;20036;-73
2022/01/30 13:22:04;;;;;;;29.25;7.32;;;12.70;54.80;;;;;;5078385;28;20044;-73
2022/01/30 13:24:30;;;;;;;30.75;6.45;;;11.80;56.50;;;;;;5061499;28;20051;-73
2022/01/30 13:27:02;;;;;;;32.58;6.68;;;11.10;58.20;;;;;;5078137;28;20043;-73
2022/01/30 13:29:31;;;;;;;36.03;6.20;;;10.60;59.30;;;;;;5061070;28;20498;-73
2022/01/30 13:31:57;;;;;;;33.85;7.20;;;10.30;60.20;;;;;;5077871;28;20032;-73
2022/01/30 13:34:31;;;;;;;34.70;7.10;;;10.10;61.30;;;;;;5077812;28;20521;-73
2022/01/30 13:37:02;;;;;;;32.05;6.32;;;10.10;61.80;;;;;;5077690;28;20040;-73
2022/01/30 13:47:41;;;;;;;26.70;6.22;;;14.60;50.90;;;;;;5077590;28;20044;-73
2022/01/30 13:50:18;;;;;;;29.08;5.78;;;14.90;48.50;;;;;;5077664;28;20032;-73
2022/01/30 13:52:44;;;;;;;26.73;5.53;;;15.20;47.40;;;;;;5095596;28;20100;-73